Terminal Aerodrome Forecast
Issued by NWS Charleston, WV

Current Version | Previous Version | Graphics & Text | Print | Product List | Glossary On
Versions: 1 2 3 4 5 6 7 8 9 10 11 12 13 14 15 16 17 18 19 20 21 22 23 24 25 26 27 28
000
FTUS41 KRLX 181400 AAA
TAFEKN
TAF AMD
KEKN 181459Z 1815/1912 35004KT 6SM BR BKN050 OVC070
     FM181600 15005KT 6SM BR OVC020
     FM190000 00000KT 5SM BR VCTS BKN015CB
     FM190200 00000KT 2SM BR VCTS BKN015CB
     FM190300 00000KT 1SM BR SCT001 BKN008=

USA.gov is the U.S. government's official web portal to all federal, state and local government web resources and services.